createdAt,value
2018-05-04T00:00:47.698Z,1007.44
2018-05-04T00:01:47.693Z,1007.48
2018-05-04T00:02:47.705Z,1007.50
2018-05-04T00:03:47.635Z,1007.51
2018-05-04T00:04:47.607Z,1007.49
2018-05-04T00:05:47.601Z,1007.47
2018-05-04T00:06:47.588Z,1007.42
2018-05-04T00:07:47.543Z,1007.42
2018-05-04T00:08:47.525Z,1007.44
2018-05-04T00:09:47.554Z,1007.44
2018-05-04T00:10:47.508Z,1007.46
2018-05-04T00:11:47.477Z,1007.45
2018-05-04T00:12:47.483Z,1007.44
2018-05-04T00:13:47.435Z,1007.43
2018-05-04T00:14:47.433Z,1007.40
2018-05-04T00:15:47.382Z,1007.41
2018-05-04T00:16:47.359Z,1007.39
2018-05-04T00:17:47.351Z,1007.34
2018-05-04T00:18:47.321Z,1007.36
2018-05-04T00:19:47.306Z,1007.35
2018-05-04T00:20:47.297Z,1007.35
2018-05-04T00:21:47.266Z,1007.35
2018-05-04T00:22:47.237Z,1007.34
2018-05-04T00:23:47.226Z,1007.38
2018-05-04T00:24:47.224Z,1007.38
2018-05-04T00:25:47.176Z,1007.38
2018-05-04T00:26:47.170Z,1007.34
2018-05-04T00:27:47.167Z,1007.37
2018-05-04T00:28:47.123Z,1007.38
2018-05-04T00:29:47.097Z,1007.34
2018-05-04T00:30:47.077Z,1007.37
2018-05-04T00:31:47.081Z,1007.37
2018-05-04T00:32:47.036Z,1007.39
2018-05-04T00:33:47.037Z,1007.38
2018-05-04T00:34:46.997Z,1007.41
2018-05-04T00:35:46.998Z,1007.41
2018-05-04T00:36:47.067Z,1007.40
2018-05-04T00:37:46.949Z,1007.40
2018-05-04T00:38:46.947Z,1007.39
2018-05-04T00:39:46.922Z,1007.38
2018-05-04T00:40:46.913Z,1007.41
2018-05-04T00:41:46.851Z,1007.38
2018-05-04T00:42:46.847Z,1007.40
2018-05-04T00:43:46.838Z,1007.41
2018-05-04T00:44:46.806Z,1007.44
2018-05-04T00:45:46.840Z,1007.44
2018-05-04T00:46:46.773Z,1007.44
2018-05-04T00:47:46.757Z,1007.47
2018-05-04T00:48:46.768Z,1007.45
2018-05-04T00:49:46.728Z,1007.43
2018-05-04T00:50:46.677Z,1007.48
2018-05-04T00:51:46.679Z,1007.42
2018-05-04T00:52:46.687Z,1007.43
2018-05-04T00:53:46.627Z,1007.42
2018-05-04T00:54:46.590Z,1007.41
2018-05-04T00:55:46.582Z,1007.41
2018-05-04T00:56:46.577Z,1007.38
2018-05-04T00:57:46.549Z,1007.42
2018-05-04T00:58:46.538Z,1007.41
2018-05-04T00:59:46.531Z,1007.41
2018-05-04T01:00:46.481Z,1007.42
2018-05-04T01:01:46.512Z,1007.43
2018-05-04T01:02:46.433Z,1007.43
2018-05-04T01:03:46.403Z,1007.46
2018-05-04T01:04:46.391Z,1007.46
2018-05-04T01:05:46.429Z,1007.45
2018-05-04T01:06:46.395Z,1007.45
2018-05-04T01:07:46.349Z,1007.46
2018-05-04T01:08:46.336Z,1007.43
2018-05-04T01:09:46.306Z,1007.46
2018-05-04T01:10:46.275Z,1007.43
2018-05-04T01:11:46.260Z,1007.47
2018-05-04T01:12:46.237Z,1007.51
2018-05-04T01:13:46.203Z,1007.53
2018-05-04T01:14:46.253Z,1007.53
2018-05-04T01:15:46.166Z,1007.55
2018-05-04T01:16:46.157Z,1007.54
2018-05-04T01:17:46.140Z,1007.58
2018-05-04T01:18:46.097Z,1007.55
2018-05-04T01:19:46.084Z,1007.55
2018-05-04T01:20:46.056Z,1007.56
2018-05-04T01:21:46.057Z,1007.58
2018-05-04T01:22:46.045Z,1007.58
2018-05-04T01:23:45.995Z,1007.61
2018-05-04T01:24:45.997Z,1007.63
2018-05-04T01:25:46.003Z,1007.64
2018-05-04T01:26:45.988Z,1007.67
2018-05-04T01:27:45.961Z,1007.71
2018-05-04T01:28:45.931Z,1007.75
2018-05-04T01:29:45.874Z,1007.75
2018-05-04T01:30:45.876Z,1007.78
2018-05-04T01:31:45.828Z,1007.76
2018-05-04T01:32:45.873Z,1007.74
2018-05-04T01:33:45.791Z,1007.77
2018-05-04T01:34:45.815Z,1007.78
2018-05-04T01:35:45.753Z,1007.79
2018-05-04T01:36:45.791Z,1007.83
2018-05-04T01:37:45.731Z,1007.87
2018-05-04T01:38:45.705Z,1007.87
2018-05-04T01:39:45.690Z,1007.90
2018-05-04T01:40:45.656Z,1007.88
2018-05-04T01:41:45.650Z,1007.86
2018-05-04T01:42:45.657Z,1007.89
2018-05-04T01:43:45.590Z,1007.88
2018-05-04T01:44:45.579Z,1007.86
2018-05-04T01:45:45.554Z,1007.92
2018-05-04T01:46:45.528Z,1007.87
2018-05-04T01:47:45.507Z,1007.84
2018-05-04T01:48:45.483Z,1007.83
2018-05-04T01:49:45.465Z,1007.83
2018-05-04T01:50:45.459Z,1007.86
2018-05-04T01:51:45.480Z,1007.87
2018-05-04T01:52:45.408Z,1007.85
2018-05-04T01:53:45.404Z,1007.87
2018-05-04T01:54:45.357Z,1007.93
2018-05-04T01:55:45.363Z,1007.90
2018-05-04T01:56:45.324Z,1007.94
2018-05-04T01:57:45.298Z,1007.92
2018-05-04T01:58:45.274Z,1007.92
2018-05-04T01:59:45.286Z,1007.95
2018-05-04T02:00:45.239Z,1007.93
2018-05-04T02:01:45.225Z,1007.92
2018-05-04T02:02:45.207Z,1007.96
2018-05-04T02:03:45.181Z,1007.97
2018-05-04T02:04:45.157Z,1007.98
2018-05-04T02:05:45.162Z,1007.92
2018-05-04T02:06:45.135Z,1007.97
2018-05-04T02:07:45.126Z,1007.95
2018-05-04T02:08:45.083Z,1007.98
2018-05-04T02:09:45.046Z,1007.93
2018-05-04T02:10:45.041Z,1007.96
2018-05-04T02:11:45.031Z,1007.97
2018-05-04T02:12:45.039Z,1007.96
2018-05-04T02:13:44.974Z,1008.00
2018-05-04T02:14:44.950Z,1008.03
2018-05-04T02:15:44.938Z,1008.01
2018-05-04T02:16:44.977Z,1008.02
2018-05-04T02:17:44.895Z,1008.05
2018-05-04T02:18:44.873Z,1008.07
2018-05-04T02:19:44.873Z,1008.05
2018-05-04T02:20:44.829Z,1008.02
2018-05-04T02:21:44.804Z,1007.99
2018-05-04T02:22:44.793Z,1007.99
2018-05-04T02:23:44.766Z,1008.02
2018-05-04T02:24:44.743Z,1007.96
2018-05-04T02:25:44.732Z,1007.96
2018-05-04T02:26:44.725Z,1007.99
2018-05-04T02:27:44.671Z,1007.94
2018-05-04T02:28:44.666Z,1007.93
2018-05-04T02:29:44.652Z,1007.89
2018-05-04T02:30:44.633Z,1007.91
2018-05-04T02:31:44.644Z,1007.91
2018-05-04T02:32:44.583Z,1007.94
2018-05-04T02:33:44.561Z,1007.88
2018-05-04T02:34:44.536Z,1007.87
2018-05-04T02:35:44.567Z,1007.83
2018-05-04T02:36:44.541Z,1007.81
2018-05-04T02:37:44.489Z,1007.81
2018-05-04T02:38:44.452Z,1007.84
2018-05-04T02:39:44.461Z,1007.84
2018-05-04T02:40:44.430Z,1007.84
2018-05-04T02:41:44.380Z,1007.87
2018-05-04T02:42:44.391Z,1007.88
2018-05-04T02:43:44.345Z,1007.90
2018-05-04T02:44:44.323Z,1007.90
2018-05-04T02:45:44.321Z,1007.93
2018-05-04T02:46:44.277Z,1007.89
2018-05-04T02:47:44.291Z,1007.86
2018-05-04T02:48:44.310Z,1007.86
2018-05-04T02:49:44.284Z,1007.83
2018-05-04T02:50:44.221Z,1007.83
2018-05-04T02:51:44.199Z,1007.81
2018-05-04T02:52:44.198Z,1007.79
2018-05-04T02:53:44.143Z,1007.78
2018-05-04T02:54:44.120Z,1007.74
2018-05-04T02:55:44.091Z,1007.72
2018-05-04T02:56:44.093Z,1007.75
2018-05-04T02:57:44.046Z,1007.75
2018-05-04T02:58:44.051Z,1007.75
2018-05-04T02:59:44.015Z,1007.73
2018-05-04T03:00:44.065Z,1007.73
2018-05-04T03:01:43.979Z,1007.71
2018-05-04T03:02:43.966Z,1007.72
2018-05-04T03:03:43.936Z,1007.71
2018-05-04T03:04:43.902Z,1007.67
2018-05-04T03:05:43.903Z,1007.70
2018-05-04T03:06:43.888Z,1007.66
2018-05-04T03:07:43.877Z,1007.65
2018-05-04T03:08:43.869Z,1007.66
2018-05-04T03:09:43.825Z,1007.64
2018-05-04T03:10:43.857Z,1007.64
2018-05-04T03:11:43.765Z,1007.63
2018-05-04T03:12:43.760Z,1007.65
2018-05-04T03:13:43.724Z,1007.66
2018-05-04T03:14:43.694Z,1007.64
2018-05-04T03:15:43.701Z,1007.58
2018-05-04T03:16:43.687Z,1007.59
2018-05-04T03:17:43.637Z,1007.55
2018-05-04T03:18:43.614Z,1007.60
2018-05-04T03:19:43.585Z,1007.60
2018-05-04T03:20:43.585Z,1007.58
2018-05-04T03:21:43.543Z,1007.54
2018-05-04T03:22:43.556Z,1007.58
2018-05-04T03:23:43.525Z,1007.57
2018-05-04T03:24:43.497Z,1007.52
2018-05-04T03:25:43.479Z,1007.52
2018-05-04T03:26:43.434Z,1007.49
2018-05-04T03:27:43.441Z,1007.46
2018-05-04T03:28:43.412Z,1007.43
2018-05-04T03:29:43.374Z,1007.43
2018-05-04T03:30:43.350Z,1007.44
2018-05-04T03:31:43.328Z,1007.43
2018-05-04T03:32:43.340Z,1007.51
2018-05-04T03:33:43.319Z,1007.50
2018-05-04T03:34:43.268Z,1007.50
2018-05-04T03:35:43.253Z,1007.47
2018-05-04T03:38:39.449Z,1007.51
2018-05-04T03:39:15.328Z,1007.49
2018-05-04T03:41:08.966Z,1007.47
2018-05-04T03:42:08.730Z,1007.48
2018-05-04T03:44:03.088Z,1007.46
2018-05-04T03:45:03.023Z,1007.45
2018-05-04T03:46:03.066Z,1007.47
2018-05-04T03:47:02.997Z,1007.45
2018-05-04T03:48:02.987Z,1007.47
2018-05-04T03:49:02.976Z,1007.52
2018-05-04T03:50:02.940Z,1007.49
2018-05-04T03:51:02.947Z,1007.51
2018-05-04T03:52:03.008Z,1007.51
2018-05-04T03:53:02.875Z,1007.54
2018-05-04T03:54:02.854Z,1007.56
2018-05-04T03:55:02.822Z,1007.59
2018-05-04T03:56:02.805Z,1007.58
2018-05-04T03:57:02.785Z,1007.60
2018-05-04T03:58:02.765Z,1007.61
2018-05-04T03:59:02.813Z,1007.57
2018-05-04T04:00:02.743Z,1007.62
2018-05-04T04:01:02.691Z,1007.60
2018-05-04T04:02:02.670Z,1007.59
2018-05-04T04:03:02.716Z,1007.61
2018-05-04T04:04:02.648Z,1007.59
2018-05-04T04:05:02.603Z,1007.60
2018-05-04T04:06:02.594Z,1007.63
2018-05-04T04:07:02.560Z,1007.61
2018-05-04T04:08:02.528Z,1007.59
2018-05-04T04:09:02.511Z,1007.59
2018-05-04T04:10:02.511Z,1007.60
2018-05-04T04:11:02.485Z,1007.62
2018-05-04T04:12:02.478Z,1007.63
2018-05-04T04:13:02.439Z,1007.66
2018-05-04T04:14:02.477Z,1007.65
2018-05-04T04:15:02.393Z,1007.69
2018-05-04T04:16:02.369Z,1007.65
2018-05-04T04:17:02.348Z,1007.70
2018-05-04T04:18:02.396Z,1007.68
2018-05-04T04:19:02.300Z,1007.69
2018-05-04T04:20:02.286Z,1007.68
2018-05-04T04:21:02.282Z,1007.67
2018-05-04T04:22:02.241Z,1007.70
2018-05-04T04:23:02.227Z,1007.71
2018-05-04T04:24:02.237Z,1007.77
2018-05-04T04:25:02.239Z,1007.75
2018-05-04T04:26:02.170Z,1007.77
2018-05-04T04:27:02.139Z,1007.74
2018-05-04T04:28:02.131Z,1007.73
2018-05-04T04:29:02.098Z,1007.74
2018-05-04T04:30:02.086Z,1007.73
2018-05-04T04:31:02.067Z,1007.74
2018-05-04T04:32:02.023Z,1007.77
2018-05-04T04:33:02.040Z,1007.76
2018-05-04T04:34:02.016Z,1007.80
2018-05-04T04:35:01.961Z,1007.79
2018-05-04T04:36:01.952Z,1007.80
2018-05-04T04:37:01.941Z,1007.87
2018-05-04T04:38:01.948Z,1007.84
2018-05-04T04:39:01.901Z,1007.89
2018-05-04T04:40:01.856Z,1007.90
2018-05-04T04:41:01.874Z,1007.92
2018-05-04T04:42:01.847Z,1007.94
2018-05-04T04:43:01.812Z,1007.96
2018-05-04T04:44:01.760Z,1008.00
2018-05-04T04:45:01.770Z,1008.00
2018-05-04T04:46:01.725Z,1008.01
2018-05-04T04:47:01.742Z,1008.03
2018-05-04T04:48:01.711Z,1008.02
2018-05-04T04:49:01.684Z,1008.00
2018-05-04T04:50:01.655Z,1008.03
2018-05-04T04:51:01.619Z,1008.04
2018-05-04T04:52:01.610Z,1008.07
2018-05-04T04:53:01.596Z,1008.07
2018-05-04T04:54:01.564Z,1008.06
2018-05-04T04:55:01.528Z,1008.09
2018-05-04T04:56:01.592Z,1008.08
2018-05-04T04:57:01.527Z,1008.05
2018-05-04T04:58:01.461Z,1008.09
2018-05-04T04:59:01.447Z,1008.08
2018-05-04T05:00:01.441Z,1008.07
2018-05-04T05:01:01.399Z,1008.07
2018-05-04T05:02:01.431Z,1008.04
2018-05-04T05:03:01.429Z,1008.08
2018-05-04T05:04:01.414Z,1008.11
2018-05-04T05:05:01.324Z,1008.12
2018-05-04T05:06:01.296Z,1008.14
2018-05-04T05:07:01.269Z,1008.15
2018-05-04T05:08:01.275Z,1008.15
2018-05-04T05:09:01.246Z,1008.19
2018-05-04T05:10:01.225Z,1008.16
2018-05-04T05:11:01.189Z,1008.22
2018-05-04T05:12:01.225Z,1008.21
2018-05-04T05:13:01.143Z,1008.18
2018-05-04T05:14:01.180Z,1008.19
2018-05-04T05:15:01.117Z,1008.20
2018-05-04T05:16:01.083Z,1008.19
2018-05-04T05:17:01.068Z,1008.19
2018-05-04T05:18:01.110Z,1008.24
2018-05-04T05:19:01.106Z,1008.26
2018-05-04T05:20:01.041Z,1008.26
2018-05-04T05:21:01.084Z,1008.26
2018-05-04T05:22:01.021Z,1008.35
2018-05-04T05:23:00.984Z,1008.28
2018-05-04T05:24:00.966Z,1008.31
2018-05-04T05:25:00.967Z,1008.31
2018-05-04T05:26:00.878Z,1008.29
2018-05-04T05:27:00.878Z,1008.30
2018-05-04T05:28:01.751Z,1008.28
2018-05-04T05:29:00.825Z,1008.30
2018-05-04T05:30:00.847Z,1008.28
2018-05-04T05:31:00.829Z,1008.32
2018-05-04T05:32:00.760Z,1008.30
2018-05-04T05:33:00.749Z,1008.35
2018-05-04T05:34:00.772Z,1008.37
2018-05-04T05:35:00.740Z,1008.40
2018-05-04T05:36:00.666Z,1008.43
2018-05-04T05:37:00.640Z,1008.45
2018-05-04T05:38:00.624Z,1008.49
2018-05-04T05:39:00.603Z,1008.51
2018-05-04T05:40:00.583Z,1008.51
2018-05-04T05:41:00.562Z,1008.54
2018-05-04T05:42:00.552Z,1008.50
2018-05-04T05:43:00.557Z,1008.56
2018-05-04T05:44:00.510Z,1008.58
2018-05-04T05:45:00.494Z,1008.59
2018-05-04T05:46:00.477Z,1008.65
2018-05-04T05:47:00.456Z,1008.64
2018-05-04T05:48:00.452Z,1008.68
2018-05-04T05:49:00.407Z,1008.73
2018-05-04T05:50:00.380Z,1008.74
2018-05-04T05:51:00.373Z,1008.77
2018-05-04T05:52:00.548Z,1008.73
2018-05-04T05:53:00.387Z,1008.74
2018-05-04T05:54:00.354Z,1008.72
2018-05-04T05:55:00.294Z,1008.71
2018-05-04T05:56:00.323Z,1008.71
2018-05-04T05:57:00.272Z,1008.70
2018-05-04T05:58:00.321Z,1008.69
2018-05-04T05:59:00.232Z,1008.70
2018-05-04T06:00:00.197Z,1008.72
2018-05-04T06:01:00.173Z,1008.76
2018-05-04T06:02:00.185Z,1008.72
2018-05-04T06:03:00.181Z,1008.76
2018-05-04T06:04:00.163Z,1008.76
2018-05-04T06:05:00.139Z,1008.79
2018-05-04T06:06:00.099Z,1008.77
2018-05-04T06:07:00.152Z,1008.84
2018-05-04T06:08:00.054Z,1008.84
2018-05-04T06:09:00.048Z,1008.83
2018-05-04T06:10:00.050Z,1008.91
2018-05-04T06:11:00.005Z,1008.90
2018-05-04T06:11:59.980Z,1008.82
2018-05-04T06:12:59.962Z,1008.87
2018-05-04T06:13:59.957Z,1008.89
2018-05-04T06:15:00.025Z,1008.89
2018-05-04T06:15:59.932Z,1008.91
2018-05-04T06:16:59.916Z,1008.90
2018-05-04T06:17:59.894Z,1008.89
2018-05-04T06:18:59.899Z,1008.85
2018-05-04T06:19:59.874Z,1008.89
2018-05-04T06:20:59.864Z,1008.91
2018-05-04T06:21:59.853Z,1008.92
2018-05-04T06:22:59.838Z,1008.89
2018-05-04T06:23:59.780Z,1008.88
2018-05-04T06:24:59.791Z,1008.94
2018-05-04T06:25:59.751Z,1008.98
2018-05-04T06:26:59.740Z,1008.96
2018-05-04T06:27:59.724Z,1008.99
2018-05-04T06:28:59.708Z,1009.04
2018-05-04T06:29:59.688Z,1009.08
2018-05-04T06:30:59.710Z,1009.10
2018-05-04T06:31:59.659Z,1009.13
2018-05-04T06:32:59.656Z,1009.14
2018-05-04T06:33:59.638Z,1009.14
2018-05-04T06:34:59.615Z,1009.20
2018-05-04T06:35:59.599Z,1009.27
2018-05-04T06:36:59.625Z,1009.29
2018-05-04T06:37:59.575Z,1009.29
2018-05-04T06:38:59.560Z,1009.36
2018-05-04T06:39:59.559Z,1009.31
2018-05-04T06:40:59.558Z,1009.28
2018-05-04T06:41:59.516Z,1009.25
2018-05-04T06:42:59.537Z,1009.18
2018-05-04T06:43:59.519Z,1009.10
2018-05-04T06:44:59.492Z,1009.08
2018-05-04T06:45:59.502Z,1009.06
2018-05-04T06:46:59.553Z,1009.02
2018-05-04T06:47:59.464Z,1009.01
2018-05-04T06:48:59.440Z,1009.01
2018-05-04T06:49:59.439Z,1009.07
2018-05-04T06:50:59.461Z,1009.11
2018-05-04T06:51:59.384Z,1009.18
2018-05-04T06:52:59.374Z,1009.23
2018-05-04T06:53:59.385Z,1009.27
2018-05-04T06:54:59.399Z,1009.28
2018-05-04T06:55:59.338Z,1009.31
2018-05-04T06:56:59.325Z,1009.34
2018-05-04T06:57:59.354Z,1009.32
2018-05-04T06:58:59.309Z,1009.28
2018-05-04T06:59:59.304Z,1009.28
2018-05-04T07:00:59.279Z,1009.10
2018-05-04T07:01:59.312Z,1009.11
2018-05-04T07:02:59.302Z,1009.06
2018-05-04T07:03:59.247Z,1009.06
2018-05-04T07:04:59.233Z,1009.05
2018-05-04T07:05:59.239Z,1009.10
2018-05-04T07:06:59.212Z,1009.05
2018-05-04T07:07:59.210Z,1009.02
2018-05-04T07:08:59.238Z,1009.04
2018-05-04T07:09:59.184Z,1009.03
2018-05-04T07:10:59.165Z,1008.99
2018-05-04T07:11:59.146Z,1009.00
2018-05-04T07:12:59.218Z,1009.01
2018-05-04T07:13:59.146Z,1009.02
2018-05-04T07:14:59.151Z,1009.00
2018-05-04T07:15:59.109Z,1008.94
2018-05-04T07:16:59.096Z,1008.95
2018-05-04T07:17:59.138Z,1008.98
2018-05-04T07:18:59.061Z,1008.95
2018-05-04T07:19:59.049Z,1008.94
2018-05-04T07:20:59.038Z,1008.94
2018-05-04T07:21:59.109Z,1008.95
2018-05-04T07:22:59.002Z,1008.94
2018-05-04T07:23:59.004Z,1008.91
2018-05-04T07:24:58.968Z,1008.88
2018-05-04T07:25:59.020Z,1008.90
2018-05-04T07:26:58.976Z,1008.91
2018-05-04T07:27:58.960Z,1008.93
2018-05-04T07:28:58.918Z,1008.88
2018-05-04T07:29:58.916Z,1008.93
2018-05-04T07:30:58.900Z,1008.93
2018-05-04T07:31:58.899Z,1008.88
2018-05-04T07:32:58.906Z,1008.90
2018-05-04T07:33:58.838Z,1008.92
2018-05-04T07:34:58.824Z,1008.96
2018-05-04T07:35:58.877Z,1008.92
2018-05-04T07:36:58.807Z,1008.95
2018-05-04T07:37:58.809Z,1009.02
2018-05-04T07:38:58.772Z,1008.98
2018-05-04T07:39:58.773Z,1009.00
2018-05-04T07:40:58.743Z,1008.98
2018-05-04T07:41:58.726Z,1008.97
2018-05-04T07:42:58.767Z,1008.98
2018-05-04T07:43:58.705Z,1008.95
2018-05-04T07:44:58.720Z,1008.99
2018-05-04T07:45:58.655Z,1008.99
2018-05-04T07:46:58.639Z,1008.97
2018-05-04T07:47:58.635Z,1008.97
2018-05-04T07:48:58.629Z,1008.98
2018-05-04T07:49:58.604Z,1009.00
2018-05-04T07:50:58.579Z,1009.03
2018-05-04T07:51:58.616Z,1008.99
2018-05-04T07:52:58.569Z,1008.99
2018-05-04T07:53:58.578Z,1008.99
2018-05-04T07:54:58.531Z,1008.94
2018-05-04T07:55:58.547Z,1008.97
2018-05-04T07:56:58.494Z,1008.94
2018-05-04T07:57:58.482Z,1008.97
2018-05-04T07:58:58.459Z,1008.99
2018-05-04T07:59:58.445Z,1008.96
2018-05-04T08:00:58.435Z,1008.99
2018-05-04T08:01:58.434Z,1008.98
2018-05-04T08:02:58.507Z,1008.99
2018-05-04T08:03:58.368Z,1009.01
2018-05-04T08:04:58.358Z,1008.99
2018-05-04T08:05:58.407Z,1009.01
2018-05-04T08:06:58.345Z,1009.01
2018-05-04T08:07:58.338Z,1009.02
2018-05-04T08:08:58.327Z,1008.99
2018-05-04T08:09:58.311Z,1009.01
2018-05-04T08:10:58.312Z,1008.99
2018-05-04T08:11:58.254Z,1008.96
2018-05-04T08:12:58.260Z,1009.00
2018-05-04T08:13:58.212Z,1008.98
2018-05-04T08:14:58.211Z,1008.98
2018-05-04T08:15:58.173Z,1009.01
2018-05-04T08:16:58.166Z,1009.02
2018-05-04T08:17:58.203Z,1009.04
2018-05-04T08:18:58.127Z,1009.00
2018-05-04T08:19:58.196Z,1009.04
2018-05-04T08:20:58.125Z,1009.03
2018-05-04T08:21:58.126Z,1009.06
2018-05-04T08:22:58.092Z,1009.03
2018-05-04T08:23:58.109Z,1009.03
2018-05-04T08:24:58.040Z,1009.01
2018-05-04T08:25:58.041Z,1009.00
2018-05-04T08:26:58.004Z,1009.03
2018-05-04T08:27:58.004Z,1009.05
2018-05-04T08:28:57.969Z,1009.05
2018-05-04T08:29:57.987Z,1008.99
2018-05-04T08:30:57.944Z,1008.94
2018-05-04T08:31:57.929Z,1009.00
2018-05-04T08:32:57.978Z,1008.96
2018-05-04T08:33:58.101Z,1008.93
2018-05-04T08:34:57.916Z,1008.92
2018-05-04T08:35:57.935Z,1008.90
2018-05-04T08:36:57.981Z,1008.89
2018-05-04T08:37:57.836Z,1008.92
2018-05-04T08:38:57.834Z,1008.91
2018-05-04T08:39:57.800Z,1008.94
2018-05-04T08:40:57.844Z,1008.89
2018-05-04T08:41:57.771Z,1008.91
2018-05-04T08:42:57.840Z,1008.88
2018-05-04T08:43:57.774Z,1008.85
2018-05-04T08:44:57.739Z,1008.91
2018-05-04T08:45:57.700Z,1008.93
2018-05-04T08:46:57.689Z,1008.93
2018-05-04T08:47:57.684Z,1008.96
2018-05-04T08:48:57.655Z,1008.88
2018-05-04T08:49:57.682Z,1008.95
2018-05-04T08:50:57.747Z,1008.96
2018-05-04T08:51:57.620Z,1008.93
2018-05-04T08:52:57.590Z,1008.95
2018-05-04T08:53:57.589Z,1008.99
2018-05-04T08:54:57.582Z,1008.99
2018-05-04T08:55:57.588Z,1008.96
2018-05-04T08:56:57.530Z,1008.95
2018-05-04T08:57:57.546Z,1008.98
2018-05-04T08:58:57.506Z,1008.95
2018-05-04T08:59:57.530Z,1008.92
2018-05-04T09:00:57.497Z,1008.89
2018-05-04T09:01:57.451Z,1008.85
2018-05-04T09:02:57.455Z,1008.83
2018-05-04T09:03:57.438Z,1008.78
2018-05-04T09:04:57.441Z,1008.81
2018-05-04T09:05:57.472Z,1008.84
2018-05-04T09:06:57.380Z,1008.77
2018-05-04T09:07:57.372Z,1008.81
2018-05-04T09:08:57.387Z,1008.80
2018-05-04T09:09:57.328Z,1008.80
2018-05-04T09:10:57.379Z,1008.85
2018-05-04T09:11:57.305Z,1008.84
2018-05-04T09:12:57.283Z,1008.86
2018-05-04T09:13:57.267Z,1008.86
2018-05-04T09:14:57.278Z,1008.82
2018-05-04T09:15:57.253Z,1008.82
2018-05-04T09:16:57.241Z,1008.79
2018-05-04T09:17:57.201Z,1008.78
2018-05-04T09:18:57.208Z,1008.73
2018-05-04T09:19:57.193Z,1008.75
2018-05-04T09:20:57.164Z,1008.69
2018-05-04T09:21:57.159Z,1008.75
2018-05-04T09:22:57.135Z,1008.72
2018-05-04T09:23:57.113Z,1008.73
2018-05-04T09:24:57.103Z,1008.76
2018-05-04T09:25:57.115Z,1008.74
2018-05-04T09:26:57.098Z,1008.74
2018-05-04T09:27:57.153Z,1008.69
2018-05-04T09:28:57.077Z,1008.67
2018-05-04T09:29:57.095Z,1008.75
2018-05-04T09:30:57.093Z,1008.74
2018-05-04T09:31:57.013Z,1008.71
2018-05-04T09:32:57.025Z,1008.68
2018-05-04T09:33:56.984Z,1008.69
2018-05-04T09:34:56.954Z,1008.67
2018-05-04T09:35:56.992Z,1008.66
2018-05-04T09:36:56.915Z,1008.72
2018-05-04T09:37:56.922Z,1008.68
2018-05-04T09:38:56.896Z,1008.71
2018-05-04T09:39:56.873Z,1008.69
2018-05-04T09:40:56.893Z,1008.69
2018-05-04T09:41:56.862Z,1008.65
2018-05-04T09:42:56.830Z,1008.66
2018-05-04T09:43:56.813Z,1008.66
2018-05-04T09:44:56.815Z,1008.74
2018-05-04T09:45:56.784Z,1008.72
2018-05-04T09:46:56.786Z,1008.73
2018-05-04T09:47:56.751Z,1008.70
2018-05-04T09:48:56.839Z,1008.72
2018-05-04T09:49:56.739Z,1008.68
2018-05-04T09:50:56.709Z,1008.72
2018-05-04T09:51:56.727Z,1008.81
2018-05-04T09:52:56.688Z,1008.72
2018-05-04T09:53:56.687Z,1008.71
2018-05-04T09:54:56.659Z,1008.75
2018-05-04T09:55:56.726Z,1008.70
2018-05-04T09:56:56.615Z,1008.68
2018-05-04T09:57:56.663Z,1008.70
2018-05-04T09:58:56.601Z,1008.71
2018-05-04T09:59:56.609Z,1008.68
2018-05-04T10:00:56.569Z,1008.70
2018-05-04T10:01:56.548Z,1008.74
2018-05-04T10:02:56.633Z,1008.74
2018-05-04T10:03:56.594Z,1008.73
2018-05-04T10:04:56.510Z,1008.68
2018-05-04T10:05:56.504Z,1008.68
2018-05-04T10:06:56.475Z,1008.68
2018-05-04T10:07:56.494Z,1008.61
2018-05-04T10:08:56.464Z,1008.61
2018-05-04T10:09:56.429Z,1008.60
2018-05-04T10:10:56.467Z,1008.65
2018-05-04T10:11:56.410Z,1008.60
2018-05-04T10:12:56.393Z,1008.56
2018-05-04T10:13:56.412Z,1008.55
2018-05-04T10:14:56.389Z,1008.55
2018-05-04T10:15:56.438Z,1008.55
2018-05-04T10:16:56.350Z,1008.52
2018-05-04T10:17:56.320Z,1008.54
2018-05-04T10:18:56.304Z,1008.50
2018-05-04T10:19:56.297Z,1008.54
2018-05-04T10:20:56.281Z,1008.59
2018-05-04T10:21:56.317Z,1008.57
2018-05-04T10:22:56.242Z,1008.57
2018-05-04T10:23:56.230Z,1008.60
2018-05-04T10:24:56.245Z,1008.55
2018-05-04T10:25:56.209Z,1008.57
2018-05-04T10:26:56.231Z,1008.56
2018-05-04T10:27:56.231Z,1008.61
2018-05-04T10:28:56.169Z,1008.57
2018-05-04T10:29:56.161Z,1008.59
2018-05-04T10:30:56.160Z,1008.56
2018-05-04T10:31:56.138Z,1008.53
2018-05-04T10:32:56.134Z,1008.55
2018-05-04T10:33:56.082Z,1008.53
2018-05-04T10:34:56.146Z,1008.51
2018-05-04T10:35:56.068Z,1008.51
2018-05-04T10:36:56.109Z,1008.50
2018-05-04T10:37:56.059Z,1008.53
2018-05-04T10:38:56.075Z,1008.50
2018-05-04T10:39:56.002Z,1008.56
2018-05-04T10:40:56.062Z,1008.49
2018-05-04T10:41:55.995Z,1008.42
2018-05-04T10:42:56.001Z,1008.53
2018-05-04T10:43:55.942Z,1008.52
2018-05-04T10:44:55.930Z,1008.49
2018-05-04T10:45:55.914Z,1008.50
2018-05-04T10:46:55.952Z,1008.48
2018-05-04T10:47:55.921Z,1008.48
2018-05-04T10:48:55.895Z,1008.50
2018-05-04T10:49:55.856Z,1008.54
2018-05-04T10:50:55.874Z,1008.57
2018-05-04T10:51:55.841Z,1008.61
2018-05-04T10:52:55.821Z,1008.55
2018-05-04T10:53:55.824Z,1008.57
2018-05-04T10:54:55.789Z,1008.52
2018-05-04T10:55:55.778Z,1008.54
2018-05-04T10:56:55.808Z,1008.46
2018-05-04T10:57:55.783Z,1008.48
2018-05-04T10:58:55.736Z,1008.48
2018-05-04T10:59:55.733Z,1008.44
2018-05-04T11:00:55.732Z,1008.51
2018-05-04T11:01:55.691Z,1008.52
2018-05-04T11:02:55.687Z,1008.50
2018-05-04T11:03:55.660Z,1008.53
2018-05-04T11:04:55.675Z,1008.46
2018-05-04T11:05:55.661Z,1008.49
2018-05-04T11:06:55.628Z,1008.45
2018-05-04T11:07:55.633Z,1008.47
2018-05-04T11:08:55.596Z,1008.46
2018-05-04T11:09:55.579Z,1008.51
2018-05-04T11:10:55.598Z,1008.47
2018-05-04T11:11:55.650Z,1008.47
2018-05-04T11:12:55.539Z,1008.50
2018-05-04T11:13:55.519Z,1008.52
2018-05-04T11:14:55.528Z,1008.51
2018-05-04T11:15:55.520Z,1008.52
2018-05-04T11:16:55.527Z,1008.54
2018-05-04T11:17:55.482Z,1008.54
2018-05-04T11:18:55.492Z,1008.56
2018-05-04T11:19:55.442Z,1008.55
2018-05-04T11:20:55.459Z,1008.58
2018-05-04T11:21:55.437Z,1008.56
2018-05-04T11:22:55.394Z,1008.60
2018-05-04T11:23:55.386Z,1008.61
2018-05-04T11:24:55.384Z,1008.57
2018-05-04T11:25:55.352Z,1008.59
2018-05-04T11:26:55.339Z,1008.59
2018-05-04T11:27:55.329Z,1008.64
2018-05-04T11:28:55.347Z,1008.70
2018-05-04T11:29:55.311Z,1008.67
2018-05-04T11:30:55.345Z,1008.71
2018-05-04T11:31:55.313Z,1008.69
2018-05-04T11:32:55.284Z,1008.67
2018-05-04T11:33:55.280Z,1008.64
2018-05-04T11:34:55.246Z,1008.62
2018-05-04T11:35:55.240Z,1008.58
2018-05-04T11:36:55.292Z,1008.61
2018-05-04T11:37:55.222Z,1008.62
2018-05-04T11:38:55.263Z,1008.59
2018-05-04T11:39:55.180Z,1008.57
2018-05-04T11:40:55.186Z,1008.56
2018-05-04T11:41:55.236Z,1008.58
2018-05-04T11:42:55.132Z,1008.58
2018-05-04T11:43:55.198Z,1008.59
2018-05-04T11:44:55.132Z,1008.54
2018-05-04T11:45:55.084Z,1008.54
2018-05-04T11:46:55.102Z,1008.60
2018-05-04T11:47:55.068Z,1008.54
2018-05-04T11:48:55.153Z,1008.60
2018-05-04T11:49:55.024Z,1008.56
2018-05-04T11:50:55.020Z,1008.61
2018-05-04T11:51:55.005Z,1008.57
2018-05-04T11:52:55.009Z,1008.45
2018-05-04T11:53:55.058Z,1008.60
2018-05-04T11:54:54.969Z,1008.61
2018-05-04T11:55:54.955Z,1008.61
2018-05-04T11:56:54.971Z,1008.64
2018-05-04T11:57:54.959Z,1008.66
2018-05-04T11:58:54.906Z,1008.64
2018-05-04T11:59:54.952Z,1008.63
2018-05-04T12:00:54.978Z,1008.60
2018-05-04T12:01:54.882Z,1008.55
2018-05-04T12:02:54.853Z,1008.56
2018-05-04T12:03:54.892Z,1008.52
2018-05-04T12:04:54.935Z,1008.58
2018-05-04T12:05:54.860Z,1008.58
2018-05-04T12:06:54.801Z,1008.55
2018-05-04T12:07:54.810Z,1008.59
2018-05-04T12:08:54.825Z,1008.50